createdAt,value
2018-08-22T00:01:18.304Z,102066.82
2018-08-22T00:03:46.160Z,102062.44
2018-08-22T00:06:14.038Z,102055.86
2018-08-22T00:08:43.282Z,102059.42
2018-08-22T00:11:11.824Z,102056.34
2018-08-22T00:13:40.957Z,102060.79
2018-08-22T00:16:08.530Z,102059.50
2018-08-22T00:18:36.977Z,102059.95
2018-08-22T00:21:04.574Z,102054.69
2018-08-22T00:23:32.298Z,102048.14
2018-08-22T00:25:59.919Z,102049.02
2018-08-22T00:28:27.582Z,102047.30
2018-08-22T00:30:55.898Z,102045.56
2018-08-22T00:33:24.117Z,102044.72
2018-08-22T00:35:51.729Z,102039.91
2018-08-22T00:38:19.729Z,102040.82
2018-08-22T00:40:47.365Z,102041.67
2018-08-22T00:43:15.005Z,102040.82
2018-08-22T00:45:42.644Z,102045.23
2018-08-22T00:48:10.873Z,102047.00
2018-08-22T00:50:38.490Z,102043.10
2018-08-22T00:53:06.386Z,102041.78
2018-08-22T00:55:34.027Z,102038.69
2018-08-22T00:58:01.946Z,102043.10
2018-08-22T01:00:30.228Z,102042.66
2018-08-22T01:02:57.861Z,102039.61
2018-08-22T01:05:26.162Z,102042.25
2018-08-22T01:07:54.903Z,102043.14
2018-08-22T01:10:23.384Z,102038.73
2018-08-22T01:12:51.068Z,102040.02
2018-08-22T01:15:19.548Z,102040.05
2018-08-22T01:17:47.196Z,102032.59
2018-08-22T01:20:14.809Z,102037.00
2018-08-22T01:22:44.479Z,102034.83
2018-08-22T01:25:12.189Z,102033.10
2018-08-22T01:27:44.447Z,102031.34
2018-08-22T01:30:12.294Z,102033.98
2018-08-22T01:32:40.182Z,102029.58
2018-08-22T01:35:08.090Z,102033.61
2018-08-22T01:37:36.004Z,102026.19
2018-08-22T01:40:04.280Z,102028.88
2018-08-22T01:42:32.179Z,102031.55
2018-08-22T01:44:59.819Z,102025.42
2018-08-22T01:47:28.178Z,102025.89
2018-08-22T01:49:55.846Z,102021.04
2018-08-22T01:52:23.517Z,102016.27
2018-08-22T01:54:51.758Z,102014.05
2018-08-22T01:57:19.682Z,102012.77
2018-08-22T01:59:47.363Z,102014.09
2018-08-22T02:02:15.308Z,102006.67
2018-08-22T02:04:43.541Z,102006.26
2018-08-22T02:07:11.404Z,102005.86
2018-08-22T02:09:39.076Z,102000.56
2018-08-22T02:12:06.772Z,101999.24
2018-08-22T02:14:34.429Z,101997.11
2018-08-22T02:17:02.065Z,101996.70
2018-08-22T02:19:30.002Z,101996.30
2018-08-22T02:21:57.967Z,101994.64
2018-08-22T02:24:25.583Z,101993.72
2018-08-22T02:26:53.799Z,101991.52
2018-08-22T02:29:21.706Z,101991.11
2018-08-22T02:31:49.851Z,101988.06
2018-08-22T02:34:17.750Z,101984.98
2018-08-22T02:36:45.741Z,101981.45
2018-08-22T02:39:13.428Z,101982.37
2018-08-22T02:41:41.593Z,101985.42
2018-08-22T02:44:09.578Z,101981.45
2018-08-22T02:46:37.228Z,101981.45
2018-08-22T02:49:04.876Z,101979.73
2018-08-22T02:51:32.801Z,101982.81
2018-08-22T02:54:00.681Z,101979.28
2018-08-22T02:56:28.334Z,101978.03
2018-08-22T02:58:56.634Z,101975.86
2018-08-22T03:01:24.616Z,101972.81
2018-08-22T03:03:52.623Z,101967.56
2018-08-22T03:06:20.270Z,101964.14
2018-08-22T03:08:47.931Z,101965.91
2018-08-22T03:11:15.923Z,101961.53
2018-08-22T03:13:43.809Z,101961.16
2018-08-22T03:16:11.495Z,101959.83
2018-08-22T03:18:39.124Z,101963.43
2018-08-22T03:21:06.806Z,101959.02
2018-08-22T03:23:34.478Z,101953.33
2018-08-22T03:26:02.102Z,101956.45
2018-08-22T03:28:30.173Z,101952.96
2018-08-22T03:30:58.105Z,101956.96
2018-08-22T03:33:25.726Z,101951.27
2018-08-22T03:35:53.706Z,101947.73
2018-08-22T03:38:21.365Z,101948.22
2018-08-22T03:40:48.989Z,101951.77
2018-08-22T03:43:16.938Z,101948.69
2018-08-22T03:45:44.567Z,101950.93
2018-08-22T03:48:12.227Z,101949.61
2018-08-22T03:50:39.892Z,101933.38
2018-08-22T03:53:07.560Z,101939.10
2018-08-22T03:55:35.209Z,101939.10
2018-08-22T03:58:03.557Z,101937.38
2018-08-22T04:00:31.477Z,101936.52
2018-08-22T04:02:59.409Z,101935.64
2018-08-22T04:05:27.069Z,101934.33
2018-08-22T04:07:54.952Z,101936.56
2018-08-22T04:10:22.951Z,101941.84
2018-08-22T04:12:50.953Z,101940.12
2018-08-22T04:15:18.880Z,101935.72
2018-08-22T04:17:47.107Z,101936.62
2018-08-22T04:20:14.781Z,101937.48
2018-08-22T04:22:43.051Z,101941.88
2018-08-22T04:25:10.696Z,101940.12
2018-08-22T04:27:38.664Z,101943.17
2018-08-22T04:30:06.646Z,101938.80
2018-08-22T04:32:34.308Z,101943.17
2018-08-22T04:35:02.225Z,101944.49
2018-08-22T04:37:29.977Z,101944.49
2018-08-22T04:39:57.665Z,101943.58
2018-08-22T04:42:25.644Z,101936.52
2018-08-22T04:44:53.248Z,101937.48
2018-08-22T04:47:20.975Z,101943.64
2018-08-22T04:49:48.629Z,101937.91
2018-08-22T04:52:16.584Z,101941.88
2018-08-22T04:54:44.596Z,101939.64
2018-08-22T04:57:12.461Z,101941.88
2018-08-22T04:59:40.437Z,101939.68
2018-08-22T05:02:08.121Z,101933.92
2018-08-22T05:04:36.127Z,101937.00
2018-08-22T05:07:03.946Z,101940.05
2018-08-22T05:09:31.579Z,101937.48
2018-08-22T05:11:59.248Z,101934.83
2018-08-22T05:14:27.238Z,101936.59
2018-08-22T05:16:55.163Z,101936.16
2018-08-22T05:19:22.787Z,101938.80
2018-08-22T05:21:50.791Z,101940.97
2018-08-22T05:24:18.760Z,101934.39
2018-08-22T05:26:46.642Z,101942.25
2018-08-22T05:29:14.333Z,101941.81
2018-08-22T05:31:41.995Z,101936.89
2018-08-22T05:34:09.810Z,101933.30
2018-08-22T05:36:37.707Z,101931.03
2018-08-22T05:39:08.599Z,101937.64
2018-08-22T05:41:36.594Z,101930.11
2018-08-22T05:44:04.757Z,101935.77
2018-08-22T05:46:32.425Z,101937.88
2018-08-22T05:49:00.386Z,101935.23
2018-08-22T05:51:28.321Z,101929.91
2018-08-22T05:53:56.453Z,101931.59
2018-08-22T05:56:24.131Z,101921.19
2018-08-22T05:58:51.973Z,101932.44
2018-08-22T06:01:19.813Z,101934.09
2018-08-22T06:03:47.742Z,101926.56
2018-08-22T06:06:15.462Z,101924.25
2018-08-22T06:08:43.138Z,101927.30
2018-08-22T06:11:11.066Z,101919.88
2018-08-22T06:13:38.817Z,101926.97
2018-08-22T06:16:06.546Z,101923.11
2018-08-22T06:18:36.486Z,101919.17
2018-08-22T06:21:04.447Z,101916.16
2018-08-22T06:23:32.467Z,101919.17
2018-08-22T06:26:00.073Z,101922.59
2018-08-22T06:28:27.873Z,101924.77
2018-08-22T06:30:55.516Z,101917.23
2018-08-22T06:33:23.197Z,101917.72
2018-08-22T06:35:50.864Z,101919.03
2018-08-22T06:38:18.976Z,101917.75
2018-08-22T06:40:46.700Z,101916.39
2018-08-22T06:43:14.876Z,101909.34
2018-08-22T06:45:42.821Z,101913.75
2018-08-22T06:48:11.248Z,101915.51
2018-08-22T06:50:38.894Z,101913.27
2018-08-22T06:53:07.584Z,101914.99
2018-08-22T06:55:35.601Z,101905.73
2018-08-22T06:58:03.613Z,101910.11
2018-08-22T07:00:31.326Z,101907.47
2018-08-22T07:02:58.989Z,101910.98
2018-08-22T07:05:26.938Z,101904.81
2018-08-22T07:07:55.195Z,101907.02
2018-08-22T07:10:23.154Z,101908.71
2018-08-22T07:12:51.137Z,101908.71
2018-08-22T07:15:18.769Z,101909.16
2018-08-22T07:17:47.015Z,101904.30
2018-08-22T07:20:14.713Z,101905.14
2018-08-22T07:22:42.586Z,101903.31
2018-08-22T07:25:10.249Z,101896.18
2018-08-22T07:27:37.986Z,101897.02
2018-08-22T07:30:05.859Z,101897.91
2018-08-22T07:32:33.525Z,101903.19
2018-08-22T07:35:01.598Z,101901.36
2018-08-22T07:37:29.580Z,101900.91
2018-08-22T07:39:57.220Z,101899.15
2018-08-22T07:42:24.887Z,101897.31
2018-08-22T07:44:52.841Z,101901.69
2018-08-22T07:47:20.456Z,101896.36
2018-08-22T07:49:48.082Z,101897.20
2018-08-22T07:52:15.748Z,101904.17
2018-08-22T07:54:44.809Z,101900.61
2018-08-22T07:57:13.706Z,101897.97
2018-08-22T07:59:41.371Z,101890.43
2018-08-22T08:02:09.402Z,101894.36
2018-08-22T08:04:37.632Z,101885.50
2018-08-22T08:07:06.028Z,101883.66
2018-08-22T08:09:33.747Z,101886.70
2018-08-22T08:12:01.418Z,101875.20
2018-08-22T08:14:29.946Z,101875.16
2018-08-22T08:16:57.854Z,101873.80
2018-08-22T08:19:25.561Z,101869.83
2018-08-22T08:21:53.570Z,101862.29
2018-08-22T08:24:21.428Z,101864.89
2018-08-22T08:26:49.444Z,101862.20
2018-08-22T08:29:17.115Z,101864.34
2018-08-22T08:31:45.135Z,101861.65
2018-08-22T08:34:13.056Z,101865.98
2018-08-22T08:36:40.752Z,101859.77
2018-08-22T08:39:09.866Z,101859.23
2018-08-22T08:41:37.794Z,101862.64
2018-08-22T08:44:05.831Z,101852.45
2018-08-22T08:46:33.842Z,101853.70
2018-08-22T08:49:01.949Z,101853.18
2018-08-22T08:51:29.629Z,101851.38
2018-08-22T08:53:57.616Z,101852.17
2018-08-22T08:56:25.568Z,101846.39
2018-08-22T08:58:53.604Z,101850.77
2018-08-22T09:01:21.688Z,101843.22
2018-08-22T09:03:49.430Z,101841.81
2018-08-22T09:06:17.376Z,101836.20
2018-08-22T09:08:45.342Z,101842.16
2018-08-22T09:11:13.243Z,101835.02
2018-08-22T09:13:47.242Z,101834.97
2018-08-22T09:16:16.448Z,101833.59
2018-08-22T09:18:44.185Z,101831.31
2018-08-22T09:21:11.845Z,101827.69
2018-08-22T09:23:40.018Z,101825.40
2018-08-22T09:26:07.638Z,101823.54
2018-08-22T09:28:35.341Z,101820.77
2018-08-22T09:31:02.953Z,101820.28
2018-08-22T09:33:31.200Z,101819.34
2018-08-22T09:35:59.150Z,101815.73
2018-08-22T09:38:26.745Z,101812.64
2018-08-22T09:40:54.733Z,101813.44
2018-08-22T09:43:22.376Z,101813.79
2018-08-22T09:45:50.238Z,101802.22
2018-08-22T09:48:18.100Z,101802.65
2018-08-22T09:50:46.087Z,101801.25
2018-08-22T09:53:13.794Z,101802.08
2018-08-22T09:55:41.471Z,101802.87
2018-08-22T09:58:09.212Z,101792.23
2018-08-22T10:00:42.301Z,101792.98
2018-08-22T10:03:10.044Z,101785.41
2018-08-22T10:05:37.996Z,101781.31
2018-08-22T10:08:05.994Z,101776.36
2018-08-22T10:10:33.650Z,101772.28
2018-08-22T10:13:01.329Z,101780.19
2018-08-22T10:15:29.253Z,101774.36
2018-08-22T10:17:57.160Z,101766.41
2018-08-22T10:20:25.422Z,101763.66
2018-08-22T10:22:53.051Z,101758.30
2018-08-22T10:25:20.991Z,101760.36
2018-08-22T10:27:48.665Z,101744.35
2018-08-22T10:30:17.145Z,101749.02
2018-08-22T10:32:45.339Z,101745.34
2018-08-22T10:35:13.308Z,101743.03
2018-08-22T10:37:40.921Z,101742.50
2018-08-22T10:40:08.801Z,101738.87
2018-08-22T10:42:36.444Z,101738.81
2018-08-22T10:45:04.189Z,101751.04
2018-08-22T10:47:31.841Z,101748.68
2018-08-22T10:49:59.453Z,101750.78
2018-08-22T10:52:27.344Z,101744.35
2018-08-22T10:54:54.935Z,101744.20
2018-08-22T10:57:22.625Z,101741.83
2018-08-22T10:59:50.570Z,101734.16
2018-08-22T11:02:18.610Z,101733.17
2018-08-22T11:04:46.603Z,101731.70
2018-08-22T11:07:14.307Z,101731.14
2018-08-22T11:09:42.122Z,101726.18
2018-08-22T11:12:09.957Z,101727.83
2018-08-22T11:14:38.522Z,101724.13
2018-08-22T11:17:07.077Z,101729.30
2018-08-22T11:19:34.829Z,101601.88
2018-08-22T11:22:14.079Z,101721.89
2018-08-22T11:24:53.123Z,101708.06
2018-08-22T11:27:32.654Z,101709.72
2018-08-22T11:30:11.500Z,101711.78
2018-08-22T11:32:50.700Z,101709.85
2018-08-22T11:35:17.123Z,101714.72
2018-08-22T11:37:44.961Z,101714.59
2018-08-22T11:40:12.853Z,101700.18
2018-08-22T11:42:40.759Z,101696.48
2018-08-22T11:45:08.406Z,101699.80
2018-08-22T11:47:36.449Z,101693.91
2018-08-22T11:50:04.085Z,101699.44
2018-08-22T11:52:32.385Z,101689.99
2018-08-22T11:55:00.292Z,101688.03
2018-08-22T11:57:28.213Z,101684.75
2018-08-22T11:59:55.842Z,101690.78
2018-08-22T12:02:23.788Z,101684.34
2018-08-22T12:04:51.453Z,101692.59
2018-08-22T12:07:19.116Z,101683.13
2018-08-22T12:09:46.806Z,101683.79
2018-08-22T12:12:15.091Z,101682.73
2018-08-22T12:14:44.551Z,101679.00
2018-08-22T12:17:14.308Z,101676.09
2018-08-22T12:19:43.043Z,101676.81
2018-08-22T12:22:11.350Z,101673.97
2018-08-22T12:24:39.486Z,101673.35
2018-08-22T12:27:07.541Z,101623.61
2018-08-22T12:29:35.399Z,101669.85
2018-08-22T12:32:03.954Z,101665.25
2018-08-22T12:34:31.576Z,101667.16
2018-08-22T12:36:59.726Z,101662.88
2018-08-22T12:39:27.978Z,101660.09
2018-08-22T12:41:55.846Z,101653.44
2018-08-22T12:44:23.622Z,101643.13
2018-08-22T12:46:51.277Z,101653.14
2018-08-22T12:49:18.995Z,101643.24
2018-08-22T12:51:46.929Z,101647.42
2018-08-22T12:54:14.888Z,101642.31
2018-08-22T12:56:42.893Z,101631.54
2018-08-22T12:59:11.052Z,101635.39
2018-08-22T13:01:39.136Z,101626.27
2018-08-22T13:04:06.992Z,101624.69
2018-08-22T13:06:34.894Z,101620.56
2018-08-22T13:09:02.945Z,101626.16
2018-08-22T13:11:31.280Z,101622.41
2018-08-22T13:13:58.952Z,101619.06
2018-08-22T13:16:26.581Z,101620.31
2018-08-22T13:18:54.271Z,101619.76
2018-08-22T13:21:22.212Z,101624.06
2018-08-22T13:23:49.961Z,101620.39
2018-08-22T13:26:18.195Z,101612.72
2018-08-22T13:28:46.132Z,101613.20
2018-08-22T13:31:13.840Z,101607.88
2018-08-22T13:33:41.534Z,101609.98
2018-08-22T13:36:09.183Z,101607.63
2018-08-22T13:38:43.812Z,101599.95
2018-08-22T13:41:13.930Z,101606.40
2018-08-22T13:43:47.709Z,101601.00
2018-08-22T13:46:16.108Z,101592.45
2018-08-22T13:48:43.868Z,101595.20
2018-08-22T13:51:13.508Z,101597.62
2018-08-22T13:53:45.429Z,101590.28
2018-08-22T13:56:35.129Z,101587.86
2018-08-22T13:59:03.811Z,101588.55
2018-08-22T14:01:31.580Z,101586.15
2018-08-22T14:03:59.215Z,101582.84
2018-08-22T14:06:27.029Z,101587.15
2018-08-22T14:08:55.232Z,101556.34
2018-08-22T14:11:23.068Z,101578.83
2018-08-22T14:13:50.841Z,101578.72
2018-08-22T14:16:18.590Z,101571.09
2018-08-22T14:18:46.557Z,101574.28
2018-08-22T14:21:14.539Z,101576.71
2018-08-22T14:23:42.242Z,101578.56
2018-08-22T14:26:10.192Z,101571.48
2018-08-22T14:28:37.859Z,101571.22
2018-08-22T14:31:05.513Z,101568.50
2018-08-22T14:33:33.512Z,101566.93
2018-08-22T14:36:01.362Z,101560.31
2018-08-22T14:38:28.992Z,101563.14
2018-08-22T14:40:57.133Z,101566.47
2018-08-22T14:43:25.085Z,101574.27
2018-08-22T14:45:52.948Z,101557.08
2018-08-22T14:48:20.596Z,101560.89
2018-08-22T14:50:48.276Z,101565.97
2018-08-22T14:53:15.937Z,101561.75
2018-08-22T14:55:43.953Z,101549.63
2018-08-22T14:58:11.932Z,101555.04
2018-08-22T15:00:39.879Z,101551.41
2018-08-22T15:03:07.841Z,101548.21
2018-08-22T15:05:35.250Z,101553.33
2018-08-22T15:08:03.257Z,101542.88
2018-08-22T15:10:30.938Z,101542.05
2018-08-22T15:12:58.577Z,101539.09
2018-08-22T15:15:26.270Z,101537.56
2018-08-22T15:17:54.213Z,101531.95
2018-08-22T15:20:22.105Z,101533.58
2018-08-22T15:22:50.253Z,101533.41
2018-08-22T15:25:17.913Z,101530.20
2018-08-22T15:27:45.901Z,101528.28
2018-08-22T15:30:13.532Z,101524.16
2018-08-22T15:32:41.500Z,101524.67
2018-08-22T15:35:09.221Z,101521.23
2018-08-22T15:37:37.273Z,101521.47
2018-08-22T15:40:05.389Z,101521.16
2018-08-22T15:42:33.041Z,101519.16
2018-08-22T15:45:01.310Z,101520.07
2018-08-22T15:47:29.322Z,101514.69
2018-08-22T15:49:57.177Z,101507.39
2018-08-22T15:52:25.489Z,101506.92
2018-08-22T15:55:06.221Z,101501.73
2018-08-22T15:58:16.512Z,101499.16
2018-08-22T16:00:51.417Z,101500.81
2018-08-22T16:03:19.769Z,101500.70
2018-08-22T16:05:48.337Z,101496.00
2018-08-22T16:08:18.594Z,101491.20
2018-08-22T16:10:46.497Z,101490.22
2018-08-22T16:13:20.201Z,101486.12
2018-08-22T16:15:49.984Z,101478.86
2018-08-22T16:18:17.605Z,101483.09
2018-08-22T16:20:55.822Z,101481.92
2018-08-22T16:23:27.449Z,101479.04
2018-08-22T16:25:56.502Z,101475.62
2018-08-22T16:28:24.714Z,101471.03
2018-08-22T16:30:57.111Z,101466.98
2018-08-22T16:33:21.347Z,101467.72
2018-08-22T16:35:49.633Z,101469.30
2018-08-22T16:38:17.284Z,101468.17
2018-08-22T16:40:50.709Z,101467.08
2018-08-22T16:43:35.232Z,101463.83
2018-08-22T16:46:05.548Z,101461.90
2018-08-22T16:48:33.279Z,101457.22
2018-08-22T16:51:01.281Z,101456.09
2018-08-22T16:53:29.190Z,101457.21
2018-08-22T16:55:56.820Z,101456.62
2018-08-22T16:58:24.466Z,101459.52
2018-08-22T17:00:52.425Z,101446.27
2018-08-22T17:03:20.412Z,101448.94
2018-08-22T17:05:48.082Z,101443.80
2018-08-22T17:08:16.138Z,101453.13
2018-08-22T17:10:53.033Z,101445.30
2018-08-22T17:13:27.902Z,101444.34
2018-08-22T17:15:55.515Z,101447.61
2018-08-22T17:18:23.598Z,101440.32
2018-08-22T17:20:51.471Z,101445.95
2018-08-22T17:23:19.513Z,101447.13
2018-08-22T17:25:47.145Z,101443.80
2018-08-22T17:28:16.208Z,101440.89
2018-08-22T17:30:44.056Z,101439.23
2018-08-22T17:33:12.762Z,101436.76
2018-08-22T17:35:42.421Z,101433.50
2018-08-22T17:38:11.113Z,101426.28
2018-08-22T17:40:41.203Z,101434.25
2018-08-22T17:43:09.259Z,101431.91
2018-08-22T17:45:38.398Z,101438.92
2018-08-22T17:48:06.313Z,101433.95
2018-08-22T17:50:33.974Z,101434.48
2018-08-22T17:53:05.634Z,101433.42
2018-08-22T17:55:33.296Z,101434.45
2018-08-22T17:58:01.874Z,101432.41
2018-08-22T18:00:32.183Z,101432.59
2018-08-22T18:03:00.075Z,101428.23
2018-08-22T18:05:29.034Z,101429.26
2018-08-22T18:07:58.397Z,101427.32
2018-08-22T18:10:26.126Z,101423.97
2018-08-22T18:12:54.509Z,101424.50
2018-08-22T18:15:22.194Z,101422.80
2018-08-22T18:17:49.865Z,101415.53
2018-08-22T18:20:18.563Z,101419.14
2018-08-22T18:22:46.311Z,101423.29
2018-08-22T18:25:14.132Z,101418.12
2018-08-22T18:27:42.365Z,101420.02
2018-08-22T18:30:11.047Z,101422.38
2018-08-22T18:32:39.081Z,101423.47
2018-08-22T18:35:11.840Z,101427.55
2018-08-22T18:37:40.597Z,101427.70
2018-08-22T18:40:19.728Z,101425.14
2018-08-22T18:42:51.172Z,101429.21
2018-08-22T18:45:19.796Z,101429.36
2018-08-22T18:47:47.646Z,101431.26
2018-08-22T18:50:15.645Z,101424.38
2018-08-22T18:52:48.889Z,101437.37
2018-08-22T18:55:16.874Z,101441.02
2018-08-22T18:57:45.014Z,101443.37
2018-08-22T19:00:12.614Z,101438.20
2018-08-22T19:02:40.225Z,101436.70
2018-08-22T19:05:19.676Z,101440.00
2018-08-22T19:07:57.661Z,101435.28
2018-08-22T19:10:27.920Z,101440.93
2018-08-22T19:13:00.454Z,101438.98
2018-08-22T19:15:28.406Z,101451.48
2018-08-22T19:17:56.033Z,101446.16
2018-08-22T19:20:24.782Z,101449.77
2018-08-22T19:22:52.933Z,101457.81
2018-08-22T19:25:20.915Z,101463.63
2018-08-22T19:27:49.001Z,101475.17
2018-08-22T19:30:16.874Z,101467.75
2018-08-22T19:32:45.122Z,101461.63
2018-08-22T19:35:12.769Z,101476.37
2018-08-22T19:37:40.678Z,101475.56
2018-08-22T19:40:09.520Z,101475.25
2018-08-22T19:42:39.031Z,101467.90
2018-08-22T19:45:07.752Z,101475.95
2018-08-22T19:47:37.050Z,101477.91
2018-08-22T19:50:05.835Z,101483.81
2018-08-22T19:52:33.452Z,101486.23
2018-08-22T19:55:02.346Z,101489.06
2018-08-22T19:57:34.049Z,101487.37
2018-08-22T20:00:03.185Z,101489.69
2018-08-22T20:02:31.168Z,101491.57
2018-08-22T20:04:58.802Z,101483.73
2018-08-22T20:07:26.882Z,101484.30
2018-08-22T20:09:54.802Z,101485.30
2018-08-22T20:12:32.914Z,101487.58
2018-08-22T20:15:00.658Z,101491.20
2018-08-22T20:17:28.879Z,101489.62
2018-08-22T20:19:56.823Z,101488.40
2018-08-22T20:22:28.286Z,101491.97
2018-08-22T20:24:58.559Z,101487.27
2018-08-22T20:27:26.185Z,101487.83
2018-08-22T20:29:58.690Z,101493.27
2018-08-22T20:32:28.201Z,101488.02
2018-08-22T20:34:55.914Z,101490.36
2018-08-22T20:37:23.546Z,101485.60
2018-08-22T20:39:56.851Z,101497.14
2018-08-22T20:42:25.149Z,101500.86
2018-08-22T20:44:53.137Z,101496.98
2018-08-22T20:47:21.142Z,101503.27
2018-08-22T20:49:49.688Z,101498.89
2018-08-22T20:52:17.740Z,101498.11
2018-08-22T20:54:53.203Z,101499.06
2018-08-22T20:57:21.696Z,101490.34
2018-08-22T20:59:49.308Z,101492.55
2018-08-22T21:02:17.960Z,101490.34
2018-08-22T21:04:46.533Z,101490.96
2018-08-22T21:07:18.674Z,101483.51
2018-08-22T21:09:46.949Z,101484.45
2018-08-22T21:12:14.606Z,101487.63
2018-08-22T21:14:42.657Z,101491.61
2018-08-22T21:17:10.864Z,101488.14
2018-08-22T21:19:38.539Z,101485.09
2018-08-22T21:22:17.560Z,101487.87
2018-08-22T21:24:45.581Z,101491.09
2018-08-22T21:27:13.869Z,101488.95
2018-08-22T21:29:41.520Z,101491.22
2018-08-22T21:32:09.951Z,101490.44
2018-08-22T21:34:37.594Z,101493.55
2018-08-22T21:37:15.245Z,101485.70
2018-08-22T21:39:42.873Z,101483.16
2018-08-22T21:42:11.014Z,101485.38
2018-08-22T21:44:38.914Z,101490.24
2018-08-22T21:47:08.807Z,101494.55
2018-08-22T21:49:36.722Z,101491.02
2018-08-22T21:52:04.948Z,101490.02
2018-08-22T21:54:32.644Z,101488.69
2018-08-22T21:57:00.261Z,101496.27
2018-08-22T21:59:28.616Z,101492.28
2018-08-22T22:02:02.182Z,101497.20
2018-08-22T22:04:31.911Z,101495.42
2018-08-22T22:06:59.806Z,101499.86
2018-08-22T22:09:27.759Z,101502.52
2018-08-22T22:11:59.196Z,101511.36
2018-08-22T22:14:30.455Z,101509.48
2018-08-22T22:16:58.989Z,101508.61
2018-08-22T22:19:29.117Z,101505.04
2018-08-22T22:21:56.742Z,101502.84
2018-08-22T22:24:24.417Z,101499.73
2018-08-22T22:26:52.102Z,101503.30
2018-08-22T22:29:23.043Z,101504.72
2018-08-22T22:31:50.986Z,101502.52
2018-08-22T22:34:18.693Z,101504.30
2018-08-22T22:36:46.389Z,101506.56
2018-08-22T22:39:31.113Z,101505.23
2018-08-22T22:41:58.802Z,101501.73
2018-08-22T22:44:26.701Z,101502.64
2018-08-22T22:46:54.696Z,101491.17
2018-08-22T22:49:22.362Z,101485.45
2018-08-22T22:51:50.004Z,101469.15
2018-08-22T22:54:27.568Z,101491.24
2018-08-22T22:56:55.410Z,101493.95
2018-08-22T22:59:23.022Z,101486.45
2018-08-22T23:01:50.686Z,101487.77
2018-08-22T23:04:18.592Z,101487.77
2018-08-22T23:06:46.301Z,101481.69
2018-08-22T23:09:13.975Z,101473.78
2018-08-22T23:11:41.902Z,101470.35
2018-08-22T23:14:09.965Z,101470.80
2018-08-22T23:16:37.629Z,101473.85
2018-08-22T23:19:05.317Z,101471.26
2018-08-22T23:21:32.983Z,101475.23
2018-08-22T23:24:06.085Z,101472.68
2018-08-22T23:26:33.716Z,101467.89
2018-08-22T23:29:01.429Z,101466.17
2018-08-22T23:31:29.083Z,101462.70
2018-08-22T23:33:57.218Z,101467.63
2018-08-22T23:38:54.982Z,101469.89
2018-08-22T23:41:23.153Z,101469.02
2018-08-22T23:43:51.078Z,101466.84
2018-08-22T23:46:18.929Z,101463.77
2018-08-22T23:48:53.630Z,101463.86
2018-08-22T23:51:22.090Z,101458.55
2018-08-22T23:53:49.740Z,101459.55
2018-08-22T23:56:28.860Z,101456.96
2018-08-22T23:58:57.328Z,101461.01
